Atqasuk Edward Burnell Sr Memorial Airport Atqasuk US
ICAO: PATQ
IATA:
Category: Medium
Scheduled Services:

Elevation: 96 ft
TransAlt. 18000 ft.

Airport Communications:
ASOS:119.925
ANCHORAGE CNTR:135.3
CTAF:122.9
BARROW RDO:122.2

PATQ Zoom In..

Runways:

(A) RW 06 length 4370 ft width 90 ft
---- / hdg 61

(B) RW 24 length 4370 ft width 90 ft
---- / hdg 241

Location; PATQ
Day. 15 / Time. 16.03 Zulu
* Altimeter: 29.68
* Temperature: 11° c. 51.8°f.
* Wind from: 270° Speed 03 kn.
Dewpoint: 08° c.
Visibility: 10 Statute Miles.
Clouds: Overcast 1900 ft.

PATQ 151603Z 27003KT 10SM OVC019 11/08 A2968 RMK TSNO


Wind From 270°
Speed 03 kn.

 
 
jpsmedia.com for Web Design worldairports.se 2018   terms of use